Aérodrome :
LOGIN :

S'inscrire | Disclaimer

   EN    FR    IT 

 










Légende :    VFR   VFR Marginal   IFR   IFR Intensif   IFR Très Intensif
Visi : 
Plafond : 
>= 8 km
>= 3000ft
5 à 8 km
1000 à 3000 ft
1500m à 5 km
500 à 1000 ft
800 à 1500m
200 à 500 ft
< 800m
< 200 ft
Symboles :   Orages  Brouillard  Fortes neiges  Fortes précipitations  Vent > 20 kt
SIGMETs :   Divers  Orages  Givrage  Turbulence  Onde Orograph.  Cendres Volcan.







- Altitude de l'aérodrome : 1411 ft
- Code IATA : ZHI


LSZG - Grenchen

DERNIER METAR :
  • 220550Z AUTO 24008KT 9999 BKN036 SCT045 08/06 Q1019

METARs EXPIRÉS :
  • 220520Z AUTO 24005KT 9999 BKN044 08/06 Q1019
  • 220450Z AUTO 25004KT 9999 BKN044 SCT049 08/06 Q1019
  • 220420Z AUTO 23004KT 9999 BKN048 07/06 Q1019
  • 220350Z AUTO 24006KT 9999 OVC046 08/06 Q1019
  • 220320Z AUTO 22005KT 9999 BKN050 08/06 Q1019

TAF TAF LSZG
Valide du 22 à 06h jusqu'au 22 à 15h UTC


220525Z 2206/2215 25004KT 9999 BKN045
PROB40
TEMPO 2209/2215 24015G25KT
ATIS : +41 32 396 96 33
Pas de NOTAMs connus pour ce terrain.



MET'MAP, la Météo Aéronautique d'un coup d'oeil ! - Copyright ORBIFLY Décembre 2007 - Disclaimer

ORBIFLY MET'MAP TEAM :

Programmation & Développement : Alexandra Zaïnal
Conception & Développement : Baudouin d'Aumeries
Co-Programmation & Développement : Marc-Olivier Méhu
Soutien technique & logistique : Manuel Goepfert

Contact : metmap@orbifly.com




SOURCES & CREDITS :

   NOAA